createdAt,value
2018-09-17T00:02:06.792Z,64.90
2018-09-17T00:04:35.272Z,64.80
2018-09-17T00:07:03.796Z,64.90
2018-09-17T00:09:32.282Z,64.90
2018-09-17T00:12:00.881Z,64.80
2018-09-17T00:14:29.342Z,64.80
2018-09-17T00:16:57.869Z,64.80
2018-09-17T00:19:26.395Z,64.80
2018-09-17T00:21:54.922Z,65.60
2018-09-17T00:24:23.429Z,65.00
2018-09-17T00:26:51.987Z,64.90
2018-09-17T00:29:20.457Z,64.90
2018-09-17T00:31:48.937Z,64.80
2018-09-17T00:34:17.411Z,64.60
2018-09-17T00:36:45.876Z,64.60
2018-09-17T00:39:14.385Z,64.60
2018-09-17T00:41:42.869Z,64.50
2018-09-17T00:44:11.405Z,64.60
2018-09-17T00:46:39.894Z,64.70
2018-09-17T00:49:08.498Z,64.80
2018-09-17T00:51:37.125Z,64.70
2018-09-17T00:54:05.706Z,64.80
2018-09-17T00:56:34.256Z,64.90
2018-09-17T00:59:03.704Z,64.90
2018-09-17T01:01:32.291Z,64.90
2018-09-17T01:04:00.876Z,64.90
2018-09-17T01:06:29.498Z,65.00
2018-09-17T01:08:58.015Z,65.00
2018-09-17T01:11:26.905Z,65.00
2018-09-17T01:13:56.668Z,65.00
2018-09-17T01:16:25.314Z,65.00
2018-09-17T01:18:53.959Z,65.00
2018-09-17T01:21:22.563Z,64.90
2018-09-17T01:23:51.150Z,64.70
2018-09-17T01:26:19.686Z,64.50
2018-09-17T01:28:48.241Z,64.30
2018-09-17T01:31:16.789Z,64.40
2018-09-17T01:33:45.446Z,64.20
2018-09-17T01:36:14.031Z,64.20
2018-09-17T01:38:42.562Z,65.00
2018-09-17T01:41:11.146Z,64.10
2018-09-17T01:43:39.689Z,64.20
2018-09-17T01:46:08.240Z,64.10
2018-09-17T01:48:36.687Z,64.30
2018-09-17T01:51:05.178Z,64.30
2018-09-17T01:53:33.596Z,64.40
2018-09-17T01:56:02.081Z,64.40
2018-09-17T01:58:30.529Z,64.60
2018-09-17T02:00:59.095Z,64.80
2018-09-17T02:03:27.550Z,64.80
2018-09-17T02:05:55.968Z,64.80
2018-09-17T02:08:24.473Z,64.50
2018-09-17T02:10:52.919Z,64.70
2018-09-17T02:13:21.642Z,64.50
2018-09-17T02:15:50.098Z,64.50
2018-09-17T02:18:18.655Z,64.70
2018-09-17T02:20:47.174Z,64.80
2018-09-17T02:23:15.611Z,64.80
2018-09-17T02:25:44.071Z,65.00
2018-09-17T02:28:12.568Z,65.00
2018-09-17T02:30:40.977Z,65.00
2018-09-17T02:33:09.452Z,65.10
2018-09-17T02:35:38.094Z,65.00
2018-09-17T02:38:06.663Z,65.10
2018-09-17T02:40:35.148Z,65.10
2018-09-17T02:43:03.620Z,65.20
2018-09-17T02:45:32.071Z,65.10
2018-09-17T02:48:00.488Z,65.20
2018-09-17T02:50:28.975Z,65.20
2018-09-17T02:52:57.479Z,65.20
2018-09-17T02:55:25.992Z,65.20
2018-09-17T02:57:54.453Z,65.20
2018-09-17T03:00:22.903Z,65.30
2018-09-17T03:02:52.574Z,65.30
2018-09-17T03:05:21.042Z,65.30
2018-09-17T03:07:49.536Z,65.40
2018-09-17T03:10:18.173Z,65.40
2018-09-17T03:12:46.627Z,65.30
2018-09-17T03:15:55.939Z,65.40
2018-09-17T03:18:38.014Z,65.40
2018-09-17T03:21:07.502Z,65.40
2018-09-17T03:23:38.035Z,65.30
2018-09-17T03:26:06.576Z,65.50
2018-09-17T03:28:35.025Z,65.60
2018-09-17T03:31:03.514Z,65.70
2018-09-17T03:33:31.994Z,65.70
2018-09-17T03:36:00.571Z,66.40
2018-09-17T03:38:38.466Z,65.80
2018-09-17T03:41:07.782Z,65.70
2018-09-17T03:43:37.165Z,65.70
2018-09-17T03:46:05.679Z,65.50
2018-09-17T03:48:35.003Z,65.60
2018-09-17T03:51:04.263Z,65.50
2018-09-17T03:53:33.042Z,65.10
2018-09-17T03:56:01.591Z,65.40
2018-09-17T03:58:30.546Z,65.40
2018-09-17T04:00:59.792Z,65.50
2018-09-17T04:03:28.265Z,65.40
2018-09-17T04:05:56.923Z,65.50
2018-09-17T04:08:25.448Z,65.50
2018-09-17T04:10:53.954Z,65.50
2018-09-17T04:13:22.418Z,65.60
2018-09-17T04:15:50.924Z,65.60
2018-09-17T04:18:19.482Z,65.50
2018-09-17T04:20:47.947Z,65.60
2018-09-17T04:23:20.783Z,65.40
2018-09-17T04:25:49.477Z,65.60
2018-09-17T04:28:18.021Z,65.40
2018-09-17T04:30:46.462Z,65.50
2018-09-17T04:33:16.188Z,65.50
2018-09-17T04:35:45.471Z,65.60
2018-09-17T04:38:16.491Z,65.60
2018-09-17T04:40:45.020Z,65.70
2018-09-17T04:43:13.511Z,65.70
2018-09-17T04:45:42.172Z,65.80
2018-09-17T04:48:10.722Z,65.90
2018-09-17T04:50:40.152Z,65.90
2018-09-17T04:53:08.666Z,65.80
2018-09-17T04:55:37.976Z,65.90
2018-09-17T04:58:06.770Z,65.90
2018-09-17T05:00:35.905Z,65.90
2018-09-17T05:03:04.905Z,66.70
2018-09-17T05:05:33.378Z,66.00
2018-09-17T05:08:02.141Z,66.00
2018-09-17T05:10:30.971Z,65.90
2018-09-17T05:13:00.443Z,66.10
2018-09-17T05:15:29.412Z,66.10
2018-09-17T05:17:57.970Z,66.10
2018-09-17T05:20:26.795Z,66.10
2018-09-17T05:22:55.255Z,66.20
2018-09-17T05:25:23.769Z,66.20
2018-09-17T05:27:52.250Z,66.20
2018-09-17T05:30:20.747Z,66.20
2018-09-17T05:32:49.305Z,66.10
2018-09-17T05:35:17.847Z,66.20
2018-09-17T05:37:46.426Z,66.10
2018-09-17T05:40:14.977Z,66.20
2018-09-17T05:42:43.389Z,66.10
2018-09-17T05:45:11.875Z,66.20
2018-09-17T05:47:40.315Z,66.20
2018-09-17T05:50:08.859Z,66.10
2018-09-17T05:52:37.456Z,66.00
2018-09-17T05:55:05.977Z,65.90
2018-09-17T05:57:34.440Z,66.00
2018-09-17T06:00:02.912Z,65.80
2018-09-17T06:02:31.390Z,65.90
2018-09-17T06:04:59.929Z,65.80
2018-09-17T06:07:28.439Z,65.80
2018-09-17T06:09:56.963Z,65.60
2018-09-17T06:12:25.513Z,65.50
2018-09-17T06:14:54.021Z,65.50
2018-09-17T06:17:22.554Z,65.50
2018-09-17T06:19:50.998Z,65.10
2018-09-17T06:22:19.541Z,65.20
2018-09-17T06:27:49.677Z,64.80
2018-09-17T06:30:18.199Z,65.00
2018-09-17T06:32:46.740Z,64.90
2018-09-17T06:35:15.268Z,65.00
2018-09-17T06:37:43.812Z,64.80
2018-09-17T06:40:12.315Z,64.70
2018-09-17T06:42:40.784Z,64.80
2018-09-17T06:45:09.317Z,64.70
2018-09-17T06:47:37.802Z,64.60
2018-09-17T06:50:06.310Z,64.60
2018-09-17T06:52:34.849Z,64.60
2018-09-17T06:55:03.356Z,64.50
2018-09-17T06:57:31.840Z,64.50
2018-09-17T07:00:00.412Z,64.40
2018-09-17T07:02:28.875Z,64.50
2018-09-17T07:04:57.511Z,64.50
2018-09-17T07:07:25.986Z,64.50
2018-09-17T07:09:54.491Z,64.60
2018-09-17T07:12:22.992Z,64.60
2018-09-17T07:14:51.496Z,64.80
2018-09-17T07:17:20.580Z,64.70
2018-09-17T07:19:49.093Z,64.70
2018-09-17T07:22:17.601Z,64.60
2018-09-17T07:24:46.108Z,64.50
2018-09-17T07:27:14.624Z,64.20
2018-09-17T07:29:43.123Z,64.30
2018-09-17T07:32:11.589Z,64.10
2018-09-17T07:34:40.127Z,64.00
2018-09-17T07:37:08.633Z,64.00
2018-09-17T07:39:37.150Z,63.90
2018-09-17T07:42:05.660Z,63.90
2018-09-17T07:44:34.171Z,64.70
2018-09-17T07:47:02.645Z,64.00
2018-09-17T07:49:31.164Z,64.10
2018-09-17T07:51:59.711Z,63.90
2018-09-17T07:54:28.223Z,64.00
2018-09-17T07:56:56.704Z,63.90
2018-09-17T07:59:25.226Z,63.90
2018-09-17T08:01:53.756Z,63.80
2018-09-17T08:04:22.207Z,63.70
2018-09-17T08:06:50.721Z,63.60
2018-09-17T08:09:19.231Z,63.70
2018-09-17T08:11:47.765Z,63.70
2018-09-17T08:14:16.291Z,63.70
2018-09-17T08:16:44.898Z,63.70
2018-09-17T08:19:13.452Z,63.60
2018-09-17T08:21:41.962Z,63.50
2018-09-17T08:24:10.468Z,63.30
2018-09-17T08:26:38.969Z,63.50
2018-09-17T08:29:07.561Z,63.40
2018-09-17T08:31:36.062Z,63.40
2018-09-17T08:34:04.639Z,63.40
2018-09-17T08:36:33.147Z,63.20
2018-09-17T08:39:01.707Z,63.80
2018-09-17T08:41:30.211Z,62.90
2018-09-17T08:43:58.697Z,63.00
2018-09-17T08:46:27.243Z,62.80
2018-09-17T08:48:55.702Z,62.70
2018-09-17T08:51:24.212Z,62.60
2018-09-17T08:53:52.678Z,62.60
2018-09-17T08:56:26.465Z,62.60
2018-09-17T08:58:59.242Z,61.90
2018-09-17T09:01:34.047Z,62.10
2018-09-17T09:04:08.047Z,62.10
2018-09-17T09:06:41.702Z,62.00
2018-09-17T09:09:11.606Z,62.00
2018-09-17T09:11:45.370Z,61.60
2018-09-17T09:14:19.181Z,62.00
2018-09-17T09:16:47.650Z,62.00
2018-09-17T09:19:16.151Z,62.00
2018-09-17T09:21:44.628Z,62.20
2018-09-17T09:24:13.136Z,62.10
2018-09-17T09:26:41.699Z,62.10
2018-09-17T09:29:10.171Z,62.20
2018-09-17T09:31:38.659Z,62.30
2018-09-17T09:34:07.318Z,62.30
2018-09-17T09:36:35.843Z,62.40
2018-09-17T09:39:06.640Z,62.30
2018-09-17T09:41:35.113Z,62.20
2018-09-17T09:44:03.629Z,62.30
2018-09-17T09:46:32.123Z,62.10
2018-09-17T09:49:00.626Z,62.00
2018-09-17T09:51:29.113Z,61.80
2018-09-17T09:53:57.610Z,61.20
2018-09-17T09:56:26.110Z,61.30
2018-09-17T09:58:54.600Z,60.70
2018-09-17T10:01:26.953Z,60.70
2018-09-17T10:04:00.857Z,60.80
2018-09-17T10:06:29.401Z,60.70
2018-09-17T10:09:03.175Z,60.80
2018-09-17T10:11:36.981Z,60.80
2018-09-17T10:14:10.752Z,60.90
2018-09-17T10:16:43.472Z,61.00
2018-09-17T10:19:17.418Z,60.90
2018-09-17T10:21:45.920Z,60.90
2018-09-17T10:24:14.381Z,60.80
2018-09-17T10:26:42.906Z,60.70
2018-09-17T10:29:11.370Z,60.60
2018-09-17T10:31:39.909Z,60.50
2018-09-17T10:34:08.538Z,61.00
2018-09-17T10:36:37.311Z,60.30
2018-09-17T10:39:08.571Z,60.20
2018-09-17T10:41:37.148Z,60.20
2018-09-17T10:44:05.630Z,60.00
2018-09-17T10:46:34.354Z,59.90
2018-09-17T10:49:02.825Z,59.90
2018-09-17T10:51:31.347Z,59.50
2018-09-17T10:54:00.074Z,59.80
2018-09-17T10:56:28.535Z,59.80
2018-09-17T10:58:57.021Z,59.70
2018-09-17T11:01:25.520Z,59.50
2018-09-17T11:03:54.011Z,59.50
2018-09-17T11:06:22.506Z,59.30
2018-09-17T11:08:51.030Z,59.20
2018-09-17T11:11:19.475Z,59.00
2018-09-17T11:13:47.953Z,59.00
2018-09-17T11:16:16.422Z,59.00
2018-09-17T11:18:44.961Z,58.90
2018-09-17T11:21:13.473Z,58.80
2018-09-17T11:23:41.984Z,58.70
2018-09-17T11:26:10.457Z,58.80
2018-09-17T11:28:38.972Z,58.40
2018-09-17T11:31:07.445Z,58.30
2018-09-17T11:33:36.006Z,58.20
2018-09-17T11:36:04.519Z,58.20
2018-09-17T11:38:33.018Z,58.00
2018-09-17T11:41:01.469Z,58.00
2018-09-17T11:43:30.051Z,58.10
2018-09-17T11:45:58.578Z,58.00
2018-09-17T11:48:27.068Z,57.90
2018-09-17T11:50:55.581Z,57.80
2018-09-17T11:53:24.108Z,57.60
2018-09-17T11:55:52.583Z,57.60
2018-09-17T11:58:21.095Z,57.60
2018-09-17T12:00:54.709Z,57.50
2018-09-17T12:03:28.690Z,57.40
2018-09-17T12:05:59.256Z,57.30
2018-09-17T12:08:27.743Z,57.20
2018-09-17T12:10:56.262Z,57.10
2018-09-17T12:13:24.860Z,57.10
2018-09-17T12:15:53.363Z,57.10
2018-09-17T12:18:21.839Z,56.90
2018-09-17T12:20:50.326Z,56.80
2018-09-17T12:23:18.855Z,56.80
2018-09-17T12:25:47.398Z,56.80
2018-09-17T12:28:15.896Z,56.60
2018-09-17T12:30:44.368Z,56.60
2018-09-17T12:33:13.152Z,56.60
2018-09-17T12:35:41.723Z,56.60
2018-09-17T12:38:10.203Z,56.40
2018-09-17T12:40:38.670Z,56.00
2018-09-17T12:43:07.167Z,55.80
2018-09-17T12:45:35.660Z,55.70
2018-09-17T12:48:04.123Z,55.60
2018-09-17T12:50:32.721Z,55.50
2018-09-17T12:53:01.211Z,55.60
2018-09-17T12:55:29.702Z,55.50
2018-09-17T12:57:58.180Z,55.50
2018-09-17T13:00:26.717Z,55.40
2018-09-17T13:02:55.167Z,55.40
2018-09-17T13:05:23.691Z,55.30
2018-09-17T13:07:52.168Z,55.10
2018-09-17T13:10:20.712Z,55.10
2018-09-17T13:12:49.201Z,54.90
2018-09-17T13:15:17.664Z,54.60
2018-09-17T13:17:46.201Z,54.60
2018-09-17T13:20:14.712Z,54.60
2018-09-17T13:22:43.195Z,55.00
2018-09-17T13:25:11.657Z,54.60
2018-09-17T13:27:40.127Z,54.60
2018-09-17T13:30:08.668Z,54.50
2018-09-17T13:32:37.310Z,54.50
2018-09-17T13:35:06.350Z,54.50
2018-09-17T13:37:34.804Z,54.50
2018-09-17T13:40:03.343Z,54.50
2018-09-17T13:42:31.829Z,54.00
2018-09-17T13:45:00.329Z,54.20
2018-09-17T13:47:28.824Z,54.10
2018-09-17T13:49:57.313Z,54.00
2018-09-17T13:52:25.838Z,54.00
2018-09-17T13:54:54.362Z,53.90
2018-09-17T13:57:22.871Z,53.80
2018-09-17T13:59:51.418Z,53.80
2018-09-17T14:02:19.867Z,53.70
2018-09-17T14:04:48.320Z,53.70
2018-09-17T14:07:16.785Z,53.60
2018-09-17T14:09:45.297Z,53.40
2018-09-17T14:12:13.811Z,53.30
2018-09-17T14:14:42.294Z,53.10
2018-09-17T14:17:10.805Z,53.10
2018-09-17T14:19:39.336Z,53.10
2018-09-17T14:22:07.883Z,53.10
2018-09-17T14:24:36.359Z,53.10
2018-09-17T14:27:04.827Z,53.10
2018-09-17T14:29:33.295Z,52.90
2018-09-17T14:32:07.182Z,52.80
2018-09-17T14:34:35.662Z,52.80
2018-09-17T14:37:04.177Z,52.70
2018-09-17T14:39:32.641Z,52.60
2018-09-17T14:42:01.157Z,52.60
2018-09-17T14:44:29.681Z,52.60
2018-09-17T14:46:58.167Z,52.50
2018-09-17T14:49:26.680Z,52.50
2018-09-17T14:51:55.138Z,52.50
2018-09-17T14:54:23.697Z,52.40
2018-09-17T14:56:52.062Z,52.50
2018-09-17T14:59:21.682Z,52.50
2018-09-17T15:01:50.176Z,52.40
2018-09-17T15:04:18.720Z,52.40
2018-09-17T15:06:47.151Z,52.50
2018-09-17T15:09:15.770Z,52.40
2018-09-17T15:11:44.256Z,52.90
2018-09-17T15:14:13.514Z,52.20
2018-09-17T15:16:42.397Z,52.20
2018-09-17T15:19:10.836Z,52.10
2018-09-17T15:21:39.304Z,52.00
2018-09-17T15:24:07.911Z,52.00
2018-09-17T15:26:36.348Z,52.00
2018-09-17T15:29:04.819Z,51.90
2018-09-17T15:31:33.394Z,51.90
2018-09-17T15:34:02.047Z,51.90
2018-09-17T15:36:30.551Z,51.80
2018-09-17T15:38:59.046Z,51.80
2018-09-17T15:41:27.705Z,51.70
2018-09-17T15:43:56.129Z,51.70
2018-09-17T15:46:24.660Z,51.70
2018-09-17T15:48:53.224Z,51.70
2018-09-17T15:51:22.029Z,51.10
2018-09-17T15:53:51.076Z,51.80
2018-09-17T15:56:19.923Z,51.70
2018-09-17T15:58:48.476Z,51.50
2018-09-17T16:01:18.137Z,51.60
2018-09-17T16:03:46.777Z,50.70
2018-09-17T16:06:15.266Z,50.70
2018-09-17T16:08:44.026Z,50.80
2018-09-17T16:11:12.653Z,50.80
2018-09-17T16:13:41.091Z,50.80
2018-09-17T16:16:09.663Z,50.80
2018-09-17T16:18:38.213Z,51.00
2018-09-17T16:21:07.765Z,51.00
2018-09-17T16:23:36.216Z,50.90
2018-09-17T16:26:04.710Z,51.00
2018-09-17T16:28:33.258Z,51.00
2018-09-17T16:31:01.748Z,50.90
2018-09-17T16:33:30.503Z,50.90
2018-09-17T16:35:59.022Z,50.90
2018-09-17T16:38:27.489Z,51.00
2018-09-17T16:40:56.091Z,51.10
2018-09-17T16:43:25.528Z,51.00
2018-09-17T16:45:53.999Z,50.90
2018-09-17T16:48:22.561Z,51.00
2018-09-17T16:50:51.353Z,51.10
2018-09-17T16:53:20.963Z,51.30
2018-09-17T16:55:50.278Z,51.30
2018-09-17T16:58:18.797Z,51.40
2018-09-17T17:00:47.433Z,51.50
2018-09-17T17:03:16.149Z,51.50
2018-09-17T17:05:44.679Z,51.70
2018-09-17T17:08:13.337Z,51.80
2018-09-17T17:10:41.859Z,51.90
2018-09-17T17:13:10.447Z,51.90
2018-09-17T17:15:38.981Z,52.00
2018-09-17T17:18:07.538Z,52.20
2018-09-17T17:20:35.994Z,52.20
2018-09-17T17:23:04.611Z,52.50
2018-09-17T17:25:33.092Z,52.50
2018-09-17T17:28:01.632Z,52.40
2018-09-17T17:30:30.118Z,52.40
2018-09-17T17:32:58.644Z,52.70
2018-09-17T17:35:27.242Z,52.80
2018-09-17T17:37:55.792Z,52.90
2018-09-17T17:40:24.385Z,53.10
2018-09-17T17:42:52.818Z,53.20
2018-09-17T17:45:21.396Z,53.20
2018-09-17T17:47:49.881Z,53.40
2018-09-17T17:50:18.458Z,53.40
2018-09-17T17:52:46.920Z,53.50
2018-09-17T17:55:16.284Z,53.60
2018-09-17T17:57:44.796Z,53.70
2018-09-17T18:00:13.337Z,53.70
2018-09-17T18:02:41.850Z,53.80
2018-09-17T18:05:10.341Z,53.90
2018-09-17T18:07:38.907Z,54.10
2018-09-17T18:10:07.494Z,54.10
2018-09-17T18:12:36.039Z,54.10
2018-09-17T18:15:04.714Z,54.30
2018-09-17T18:17:33.221Z,54.20
2018-09-17T18:20:01.894Z,54.40
2018-09-17T18:22:30.481Z,54.50
2018-09-17T18:24:59.059Z,54.50
2018-09-17T18:27:27.620Z,54.70
2018-09-17T18:29:56.180Z,54.70
2018-09-17T18:32:24.702Z,54.80
2018-09-17T18:34:53.250Z,55.00
2018-09-17T18:37:21.817Z,55.00
2018-09-17T18:39:50.433Z,54.90
2018-09-17T18:42:19.463Z,54.90
2018-09-17T18:44:48.355Z,55.00
2018-09-17T18:47:16.935Z,55.20
2018-09-17T18:49:45.585Z,55.20
2018-09-17T18:52:14.224Z,55.30
2018-09-17T18:54:42.694Z,55.40
2018-09-17T18:57:13.222Z,55.50
2018-09-17T18:59:41.895Z,55.50
2018-09-17T19:02:10.428Z,55.50
2018-09-17T19:04:38.927Z,55.60
2018-09-17T19:07:07.477Z,55.70
2018-09-17T19:09:41.304Z,55.70
2018-09-17T19:12:09.976Z,55.80
2018-09-17T19:14:43.985Z,55.80
2018-09-17T19:17:17.844Z,55.80
2018-09-17T19:19:46.353Z,55.90
2018-09-17T19:22:20.194Z,56.00
2018-09-17T19:24:48.588Z,55.90
2018-09-17T19:27:17.077Z,55.50
2018-09-17T19:29:45.571Z,56.00
2018-09-17T19:32:14.093Z,56.20
2018-09-17T19:34:42.687Z,56.10
2018-09-17T19:37:16.445Z,55.90
2018-09-17T19:39:50.437Z,56.20
2018-09-17T19:42:18.918Z,56.40
2018-09-17T19:44:53.549Z,56.40
2018-09-17T19:47:22.065Z,56.40
2018-09-17T19:49:50.586Z,56.50
2018-09-17T19:52:22.475Z,56.50
2018-09-17T19:54:51.089Z,56.50
2018-09-17T19:57:25.137Z,56.60
2018-09-17T19:59:55.982Z,56.60
2018-09-17T20:02:24.870Z,56.60
2018-09-17T20:04:58.797Z,56.60
2018-09-17T20:07:27.288Z,56.70
2018-09-17T20:09:55.758Z,56.80
2018-09-17T20:12:24.262Z,56.90
2018-09-17T20:14:52.735Z,56.90
2018-09-17T20:17:21.245Z,57.00
2018-09-17T20:19:49.805Z,57.00
2018-09-17T20:22:18.990Z,57.00
2018-09-17T20:24:47.455Z,57.10
2018-09-17T20:27:15.952Z,57.10
2018-09-17T20:29:44.491Z,57.10
2018-09-17T20:32:12.990Z,57.20
2018-09-17T20:34:41.488Z,57.80
2018-09-17T20:37:09.953Z,57.30
2018-09-17T20:39:38.459Z,57.40
2018-09-17T20:42:06.949Z,57.40
2018-09-17T20:44:35.499Z,57.40
2018-09-17T20:47:03.992Z,57.40
2018-09-17T20:49:32.473Z,57.50
2018-09-17T20:52:01.086Z,57.40
2018-09-17T20:54:29.563Z,57.40
2018-09-17T20:56:58.072Z,57.40
2018-09-17T20:59:26.591Z,57.40
2018-09-17T21:01:55.110Z,57.30
2018-09-17T21:04:23.705Z,57.20
2018-09-17T21:06:52.285Z,57.30
2018-09-17T21:09:20.857Z,57.20
2018-09-17T21:11:49.354Z,57.10
2018-09-17T21:14:17.829Z,57.10
2018-09-17T21:16:46.333Z,57.40
2018-09-17T21:19:15.046Z,57.60
2018-09-17T21:21:43.472Z,57.60
2018-09-17T21:24:12.801Z,57.50
2018-09-17T21:26:41.295Z,57.50
2018-09-17T21:29:09.796Z,58.40
2018-09-17T21:31:38.257Z,57.90
2018-09-17T21:34:06.834Z,58.10
2018-09-17T21:36:35.368Z,58.00
2018-09-17T21:39:05.816Z,58.10
2018-09-17T21:41:34.284Z,58.10
2018-09-17T21:44:02.994Z,58.30
2018-09-17T21:46:31.491Z,58.20
2018-09-17T21:49:00.027Z,58.30
2018-09-17T21:51:28.506Z,58.30
2018-09-17T21:53:57.053Z,58.40
2018-09-17T21:56:25.678Z,58.50
2018-09-17T21:58:54.201Z,58.40
2018-09-17T22:01:22.703Z,58.50
2018-09-17T22:03:51.233Z,58.40
2018-09-17T22:06:19.718Z,58.50
2018-09-17T22:08:48.274Z,58.50
2018-09-17T22:11:16.726Z,58.50
2018-09-17T22:13:45.358Z,58.50
2018-09-17T22:16:13.836Z,58.50
2018-09-17T22:18:42.406Z,58.60
2018-09-17T22:21:10.865Z,58.50
2018-09-17T22:23:39.400Z,58.60
2018-09-17T22:26:07.952Z,58.70
2018-09-17T22:28:36.555Z,58.80
2018-09-17T22:31:05.053Z,58.80
2018-09-17T22:33:33.991Z,58.80
2018-09-17T22:36:02.863Z,58.80
2018-09-17T22:38:31.346Z,59.50
2018-09-17T22:40:59.932Z,58.90
2018-09-17T22:43:28.573Z,58.90
2018-09-17T22:45:57.218Z,58.90
2018-09-17T22:48:25.792Z,58.90
2018-09-17T22:50:54.317Z,59.00
2018-09-17T22:53:22.942Z,59.00
2018-09-17T22:55:51.617Z,59.00
2018-09-17T22:58:20.098Z,58.90
2018-09-17T23:00:48.678Z,58.90
2018-09-17T23:03:17.144Z,58.90
2018-09-17T23:05:45.647Z,59.00
2018-09-17T23:08:15.403Z,59.10
2018-09-17T23:10:45.551Z,59.10
2018-09-17T23:13:15.241Z,59.00
2018-09-17T23:15:43.864Z,59.10
2018-09-17T23:18:12.576Z,59.20
2018-09-17T23:20:41.130Z,59.70
2018-09-17T23:23:09.788Z,59.10
2018-09-17T23:25:38.419Z,59.10
2018-09-17T23:28:07.028Z,59.20
2018-09-17T23:30:35.688Z,59.30
2018-09-17T23:33:04.190Z,59.30
2018-09-17T23:35:33.052Z,59.30
2018-09-17T23:38:01.631Z,59.70
2018-09-17T23:40:30.223Z,59.40
2018-09-17T23:42:58.771Z,59.30
2018-09-17T23:45:27.260Z,59.30
2018-09-17T23:47:55.911Z,59.40
2018-09-17T23:50:24.416Z,59.40
2018-09-17T23:52:52.993Z,59.40
2018-09-17T23:55:21.515Z,59.40
2018-09-17T23:57:50.051Z,59.40
